Aranda — OIRY — position and weather

sailwx.info

Track history (hours):
 
Tides and Currents Weather Stations Pressure Air Temp Water Temp Dewpoint Dewpoint Depression Visibility Wind Speed Wind Dir Waves Ship Positions

Oceanographic research ship Aranda (Finland)

Detailed information on ship capabilities available from University of Delaware's Ocean Information Center and ARCUS's ALIAS (Arctic Logistics Information and Support) project.

Last reported at 2017-Apr-23 06:18 UTC. Time now 2017-Apr-23 15:52 UTC.
Position N 55°23' E 015°21'.

Length 60 m; draft 4.6 m.

Type: Other ship. MMSI: 230145000.

Date/timePositionNaut miles runAvg speedWind from/ knotsBaromVisibWave heightAir tempDewpointWater temp
2017-Apr-23 06:18N 55°23' E 015°21'1 2.8
2017-Apr-23 06:00N 55°23' E 015°20'0 0.0
2017-Apr-23 05:30N 55°23' E 015°20'1 1.9
2017-Apr-23 05:00N 55°23' E 015°18'612.9
2017-Apr-23 04:30N 55°22' E 015°07'612.6
2017-Apr-23 04:01N 55°22' E 014°56'612.6
2017-Apr-23 03:30N 55°21' E 014°45'611.5
2017-Apr-23 03:01N 55°19' E 014°36'1 1.3
2017-Apr-23 02:30N 55°18' E 014°35'612.3
2017-Apr-23 02:00N 55°14' E 014°28'612.3
2017-Apr-23 01:30N 55°09' E 014°21'612.5
2017-Apr-23 01:00N 55°04' E 014°14'612.5
2017-Apr-23 00:29N 54°59' E 014°07'1 2.0
2017-Apr-22 23:59N 54°58' E 014°06'0 0.0
2017-Apr-22 23:30N 54°58' E 014°06'0 0.1
2017-Apr-22 23:00N 54°58' E 014°06'5 9.7
2017-Apr-22 22:31N 54°59' E 013°58'612.3
2017-Apr-22 22:01N 55°01' E 013°48'612.1
2017-Apr-22 21:29N 55°01' E 013°37'612.1
2017-Apr-22 20:59N 55°01' E 013°26'5 3.5
2017-Apr-22 19:41N 55°01' E 013°18'3 9.9
2017-Apr-22 19:25N 55°03' E 013°15'612.4
2017-Apr-22 18:57N 55°07' E 013°07'612.5
2017-Apr-22 18:30N 55°10' E 013°00'612.6
2017-Apr-22 18:00N 55°14' E 012°52'612.7
2017-Apr-22 17:30N 55°17' E 012°42'510.7
2017-Apr-22 17:00N 55°23' E 012°40'612.7
2017-Apr-22 16:30N 55°29' E 012°41'612.4
2017-Apr-22 16:00N 55°35' E 012°42'612.3
2017-Apr-22 15:30N 55°41' E 012°41'612.9
2017-Apr-22 15:00N 55°48' E 012°42'612.9
2017-Apr-22 14:30N 55°54' E 012°39'1212.3
2017-Apr-22 13:30N 56°06' E 012°33'712.9
2017-Apr-22 13:00N 56°11' E 012°26'63 8.1
2017-Apr-22 05:11N 57°09' E 011°40'212.5
2017-Apr-22 05:00N 57°11' E 011°40'1 1.5
2017-Apr-22 04:26N 57°12' E 011°39'0 0.2
2017-Apr-22 04:00N 57°12' E 011°39'611.8
2017-Apr-22 03:30N 57°17' E 011°36'612.5
2017-Apr-22 03:00N 57°23' E 011°32'612.6
2017-Apr-22 02:31N 57°29' E 011°28'612.5
2017-Apr-22 02:00N 57°35' E 011°24'612.5
2017-Apr-22 01:30N 57°41' E 011°22'612.3
2017-Apr-22 01:00N 57°47' E 011°19'5 9.8
2017-Apr-22 00:30N 57°52' E 011°17'0 0.0
2017-Apr-22 00:00N 57°52' E 011°17'0 0.5
2017-Apr-21 23:30N 57°52' E 011°18'611.6
2017-Apr-21 22:59N 57°58' E 011°18'612.2
2017-Apr-21 22:30N 58°04' E 011°18'612.1
2017-Apr-21 21:59N 58°10' E 011°22'7 1.9
2017-Apr-21 18:09N 58°16' E 011°28'2 9.4
2017-Apr-21 17:58N 58°16' E 011°25'612.2
2017-Apr-21 17:30N 58°17' E 011°14'712.1
2017-Apr-21 16:55N 58°20' E 011°02'0 0.4
2017-Apr-21 16:05N 58°20' E 011°02'1 5.4
2017-Apr-21 15:59N 58°20' E 011°01'12 6.1
2017-Apr-21 13:58N 58°17' E 010°38'22 5.9
2017-Apr-21 10:13N 57°57' E 010°54'311.6
2017-Apr-21 10:00N 57°55' E 010°57'611.2
2017-Apr-21 09:30N 57°50' E 011°02'611.1
2017-Apr-21 09:00N 57°45' E 011°08'611.4
2017-Apr-21 08:30N 57°40' E 011°13'612.1
2017-Apr-21 07:59N 57°35' E 011°20'611.9
2017-Apr-21 07:30N 57°30' E 011°25'611.8
2017-Apr-21 07:01N 57°25' E 011°30'611.8
2017-Apr-21 06:30N 57°19' E 011°33'611.7
2017-Apr-21 05:59N 57°13' E 011°37'611.9
2017-Apr-21 05:26N 57°07' E 011°41'6510.1
2017-Apr-20 23:01N 56°09' E 012°32'012.4
2017-Apr-20 23:00N 56°08' E 012°32'612.2
2017-Apr-20 22:30N 56°04' E 012°39'612.0
2017-Apr-20 22:00N 55°58' E 012°42'612.0
2017-Apr-20 21:30N 55°52' E 012°45'0 0.4
2017-Apr-20 21:00N 55°52' E 012°45'2 4.9
2017-Apr-20 20:30N 55°50' E 012°44'612.4
2017-Apr-20 20:00N 55°44' E 012°41'611.6
2017-Apr-20 19:30N 55°38' E 012°42'5 9.7
2017-Apr-20 19:00N 55°33' E 012°42'611.4
2017-Apr-20 18:30N 55°27' E 012°42'612.0
2017-Apr-20 18:00N 55°21' E 012°41'510.2
2017-Apr-20 17:30N 55°17' E 012°47'611.6
2017-Apr-20 17:00N 55°16' E 012°57'1712.0
2017-Apr-20 15:38N 55°15' E 013°26'212.0
2017-Apr-20 15:30N 55°15' E 013°29'611.8
2017-Apr-20 14:59N 55°15' E 013°39'611.9
2017-Apr-20 14:30N 55°15' E 013°49'1212.0
2017-Apr-20 13:29N 55°14' E 014°11'510.9
2017-Apr-20 13:00N 55°16' E 014°19'612.4
2017-Apr-20 12:30N 55°21' E 014°26'612.1
2017-Apr-20 12:00N 55°26' E 014°33'612.1
2017-Apr-20 11:30N 55°30' E 014°40'612.2
2017-Apr-20 10:59N 55°35' E 014°48'3 6.9
2017-Apr-20 10:30N 55°37' E 014°52'0 0.0
2017-Apr-20 10:00N 55°37' E 014°52'4 8.0
2017-Apr-20 09:29N 55°39' E 014°58'812.2
2017-Apr-20 08:50N 55°43' E 015°10'512.2
2017-Apr-20 08:26N 55°46' E 015°18'305 7.8
2017-Apr-18 17:34N 59°42' E 021°19'112.4
2017-Apr-18 17:31N 59°42' E 021°20'612.4
2017-Apr-18 17:00N 59°48' E 021°21'611.9
2017-Apr-18 16:30N 59°52' E 021°29'  
Track history (hours):
 
Tides and Currents Weather Stations Pressure Air Temp Water Temp Dewpoint Dewpoint Depression Visibility Wind Speed Wind Dir Waves Ship Positions

Oceanographic research ship Aranda (Finland)

Detailed information on ship capabilities available from University of Delaware's Ocean Information Center and ARCUS's ALIAS (Arctic Logistics Information and Support) project.

Last reported at 2017-Apr-23 06:18 UTC. Time now 2017-Apr-23 15:52 UTC.
Position N 55°23' E 015°21'.

Length 60 m; draft 4.6 m.

Type: Other ship. MMSI: 230145000.

Date/timePositionNaut miles runAvg speedWind from/ knotsBaromVisibWave heightAir tempDewpointWater temp
2017-Apr-23 06:18N 55°23' E 015°21'1 2.8
2017-Apr-23 06:00N 55°23' E 015°20'0 0.0
2017-Apr-23 05:30N 55°23' E 015°20'1 1.9
2017-Apr-23 05:00N 55°23' E 015°18'612.9
2017-Apr-23 04:30N 55°22' E 015°07'612.6
2017-Apr-23 04:01N 55°22' E 014°56'612.6
2017-Apr-23 03:30N 55°21' E 014°45'611.5
2017-Apr-23 03:01N 55°19' E 014°36'1 1.3
2017-Apr-23 02:30N 55°18' E 014°35'612.3
2017-Apr-23 02:00N 55°14' E 014°28'612.3
2017-Apr-23 01:30N 55°09' E 014°21'612.5
2017-Apr-23 01:00N 55°04' E 014°14'612.5
2017-Apr-23 00:29N 54°59' E 014°07'1 2.0
2017-Apr-22 23:59N 54°58' E 014°06'0 0.0
2017-Apr-22 23:30N 54°58' E 014°06'0 0.1
2017-Apr-22 23:00N 54°58' E 014°06'5 9.7
2017-Apr-22 22:31N 54°59' E 013°58'612.3
2017-Apr-22 22:01N 55°01' E 013°48'612.1
2017-Apr-22 21:29N 55°01' E 013°37'612.1
2017-Apr-22 20:59N 55°01' E 013°26'5 3.5
2017-Apr-22 19:41N 55°01' E 013°18'3 9.9
2017-Apr-22 19:25N 55°03' E 013°15'612.4
2017-Apr-22 18:57N 55°07' E 013°07'612.5
2017-Apr-22 18:30N 55°10' E 013°00'612.6
2017-Apr-22 18:00N 55°14' E 012°52'612.7
2017-Apr-22 17:30N 55°17' E 012°42'510.7
2017-Apr-22 17:00N 55°23' E 012°40'612.7
2017-Apr-22 16:30N 55°29' E 012°41'612.4
2017-Apr-22 16:00N 55°35' E 012°42'612.3
2017-Apr-22 15:30N 55°41' E 012°41'612.9
2017-Apr-22 15:00N 55°48' E 012°42'612.9
2017-Apr-22 14:30N 55°54' E 012°39'1212.3
2017-Apr-22 13:30N 56°06' E 012°33'712.9
2017-Apr-22 13:00N 56°11' E 012°26'63 8.1
2017-Apr-22 05:11N 57°09' E 011°40'212.5
2017-Apr-22 05:00N 57°11' E 011°40'1 1.5
2017-Apr-22 04:26N 57°12' E 011°39'0 0.2
2017-Apr-22 04:00N 57°12' E 011°39'611.8
2017-Apr-22 03:30N 57°17' E 011°36'612.5
2017-Apr-22 03:00N 57°23' E 011°32'612.6
2017-Apr-22 02:31N 57°29' E 011°28'612.5
2017-Apr-22 02:00N 57°35' E 011°24'612.5
2017-Apr-22 01:30N 57°41' E 011°22'612.3
2017-Apr-22 01:00N 57°47' E 011°19'5 9.8
2017-Apr-22 00:30N 57°52' E 011°17'0 0.0
2017-Apr-22 00:00N 57°52' E 011°17'0 0.5
2017-Apr-21 23:30N 57°52' E 011°18'611.6
2017-Apr-21 22:59N 57°58' E 011°18'612.2
2017-Apr-21 22:30N 58°04' E 011°18'612.1
2017-Apr-21 21:59N 58°10' E 011°22'7 1.9
2017-Apr-21 18:09N 58°16' E 011°28'2 9.4
2017-Apr-21 17:58N 58°16' E 011°25'612.2
2017-Apr-21 17:30N 58°17' E 011°14'712.1
2017-Apr-21 16:55N 58°20' E 011°02'0 0.4
2017-Apr-21 16:05N 58°20' E 011°02'1 5.4
2017-Apr-21 15:59N 58°20' E 011°01'12 6.1
2017-Apr-21 13:58N 58°17' E 010°38'22 5.9
2017-Apr-21 10:13N 57°57' E 010°54'311.6
2017-Apr-21 10:00N 57°55' E 010°57'611.2
2017-Apr-21 09:30N 57°50' E 011°02'611.1
2017-Apr-21 09:00N 57°45' E 011°08'611.4
2017-Apr-21 08:30N 57°40' E 011°13'612.1
2017-Apr-21 07:59N 57°35' E 011°20'611.9
2017-Apr-21 07:30N 57°30' E 011°25'611.8
2017-Apr-21 07:01N 57°25' E 011°30'611.8
2017-Apr-21 06:30N 57°19' E 011°33'611.7
2017-Apr-21 05:59N 57°13' E 011°37'611.9
2017-Apr-21 05:26N 57°07' E 011°41'6510.1
2017-Apr-20 23:01N 56°09' E 012°32'012.4
2017-Apr-20 23:00N 56°08' E 012°32'612.2
2017-Apr-20 22:30N 56°04' E 012°39'612.0
2017-Apr-20 22:00N 55°58' E 012°42'612.0
2017-Apr-20 21:30N 55°52' E 012°45'0 0.4
2017-Apr-20 21:00N 55°52' E 012°45'2 4.9
2017-Apr-20 20:30N 55°50' E 012°44'612.4
2017-Apr-20 20:00N 55°44' E 012°41'611.6
2017-Apr-20 19:30N 55°38' E 012°42'5 9.7
2017-Apr-20 19:00N 55°33' E 012°42'611.4
2017-Apr-20 18:30N 55°27' E 012°42'612.0
2017-Apr-20 18:00N 55°21' E 012°41'510.2
2017-Apr-20 17:30N 55°17' E 012°47'611.6
2017-Apr-20 17:00N 55°16' E 012°57'1712.0
2017-Apr-20 15:38N 55°15' E 013°26'212.0
2017-Apr-20 15:30N 55°15' E 013°29'611.8
2017-Apr-20 14:59N 55°15' E 013°39'611.9
2017-Apr-20 14:30N 55°15' E 013°49'1212.0
2017-Apr-20 13:29N 55°14' E 014°11'510.9
2017-Apr-20 13:00N 55°16' E 014°19'612.4
2017-Apr-20 12:30N 55°21' E 014°26'612.1
2017-Apr-20 12:00N 55°26' E 014°33'612.1
2017-Apr-20 11:30N 55°30' E 014°40'612.2
2017-Apr-20 10:59N 55°35' E 014°48'3 6.9
2017-Apr-20 10:30N 55°37' E 014°52'0 0.0
2017-Apr-20 10:00N 55°37' E 014°52'4 8.0
2017-Apr-20 09:29N 55°39' E 014°58'812.2
2017-Apr-20 08:50N 55°43' E 015°10'512.2
2017-Apr-20 08:26N 55°46' E 015°18'305 7.8
2017-Apr-18 17:34N 59°42' E 021°19'112.4
2017-Apr-18 17:31N 59°42' E 021°20'612.4
2017-Apr-18 17:00N 59°48' E 021°21'611.9
2017-Apr-18 16:30N 59°52' E 021°29'  

Dump ship's entire track history